Santa Monica, Texas
Current Conditions -  °F | °C
As of 8:55 PM on Monday 22 Dec 2014 (Local Time) from KEBG Reporting Station
Clear Clear  
Wind Chill: 65°   Ceiling: Unl
Heat Index: 65°   Visibility: 7mi
Dew Point: 62°   Wind: 7mph
Humidity: 89%   Direction: 160°SSE
Pressure: 29.63"   Gusts: NA
Location:  26.5112°N, 97.8502°W
Report Text: KEBG 230255Z AUTO 16006KT 7SM CLR 19/17 A2963 RMK AO2 T01850167
Loading
Personal Weather Stations






























Interactive Weather Map New forecast layout! Learn more

10-Day Weather Forecast

Advertisements
Track Severe Weather on mobile